createdAt,value
2023-02-11T12:02:33.455Z,20.20
2023-02-11T12:04:40.344Z,20.60
2023-02-11T12:06:33.437Z,18.40
2023-02-11T12:08:31.277Z,14.00
2023-02-11T12:10:15.359Z,17.80
2023-02-11T12:11:49.686Z,18.00
2023-02-11T12:13:46.043Z,17.60
2023-02-11T12:15:35.024Z,33.00
2023-02-11T12:17:45.585Z,30.25
2023-02-11T12:19:29.314Z,33.00
2023-02-11T12:21:07.358Z,37.75
2023-02-11T12:22:55.030Z,41.50
2023-02-11T12:24:29.574Z,45.25
2023-02-11T12:26:07.452Z,52.25
2023-02-11T12:27:50.395Z,56.00
2023-02-11T12:29:40.403Z,60.40
2023-02-11T12:31:22.225Z,84.25
2023-02-11T12:33:06.285Z,82.50
2023-02-11T12:34:47.061Z,81.00
2023-02-11T12:36:27.645Z,83.25
2023-02-11T12:38:18.905Z,81.75
2023-02-11T12:39:53.728Z,79.75
2023-02-11T12:42:13.599Z,84.00
2023-02-11T12:43:45.525Z,89.50
2023-02-11T12:45:26.231Z,97.50
2023-02-11T12:47:30.585Z,94.50
2023-02-11T12:49:12.199Z,95.00
2023-02-11T12:50:56.976Z,103.25
2023-02-11T12:52:43.068Z,102.25
2023-02-11T12:54:35.693Z,105.50
2023-02-11T12:56:33.676Z,105.00
2023-02-11T12:58:06.636Z,106.25
2023-02-11T12:59:46.243Z,111.75
2023-02-11T13:01:27.464Z,115.25
2023-02-11T13:03:46.655Z,116.00
2023-02-11T13:05:44.641Z,119.75
2023-02-11T13:07:31.325Z,117.25
2023-02-11T13:09:07.448Z,115.75
2023-02-11T13:10:41.581Z,119.33
2023-02-11T13:12:31.999Z,116.75
2023-02-11T13:14:38.142Z,117.50
2023-02-11T13:16:58.700Z,119.00
2023-02-11T13:18:40.272Z,118.00
2023-02-11T13:21:01.689Z,112.00
2023-02-11T13:22:37.723Z,111.50
2023-02-11T13:24:31.168Z,110.25
2023-02-11T13:26:07.771Z,114.50
2023-02-11T13:27:58.798Z,115.50
2023-02-11T13:29:56.352Z,109.75
2023-02-11T13:31:30.276Z,110.25
2023-02-11T13:33:07.033Z,109.25
2023-02-11T13:34:41.510Z,103.50
2023-02-11T13:36:16.785Z,101.50
2023-02-11T13:37:48.642Z,101.50
2023-02-11T13:39:21.185Z,95.75
2023-02-11T13:41:06.202Z,96.00
2023-02-11T13:42:50.464Z,97.50
2023-02-11T13:44:23.929Z,91.75
2023-02-11T13:46:14.094Z,93.00
2023-02-11T13:47:47.740Z,93.50
2023-02-11T13:49:24.119Z,84.00
2023-02-11T13:51:00.624Z,77.75
2023-02-11T13:52:37.586Z,79.00
2023-02-11T13:54:09.801Z,74.00
2023-02-11T13:55:45.008Z,81.50
2023-02-11T13:57:26.582Z,78.50
2023-02-11T13:59:02.023Z,74.75
2023-02-11T14:00:34.256Z,70.00
2023-02-11T14:02:45.937Z,64.00
2023-02-11T14:04:46.873Z,63.80
2023-02-11T14:06:41.552Z,61.40
2023-02-11T14:08:33.164Z,66.00
2023-02-11T14:10:05.362Z,57.50
2023-02-11T14:11:50.338Z,59.50
2023-02-11T14:13:53.039Z,56.25
2023-02-11T14:15:28.493Z,56.75
2023-02-11T14:17:00.539Z,59.50
2023-02-11T14:18:35.466Z,65.40
2023-02-11T14:20:34.863Z,64.60
2023-02-11T14:22:20.013Z,71.00
2023-02-11T14:23:56.168Z,76.00
2023-02-11T14:25:28.238Z,77.75
2023-02-11T14:27:10.460Z,83.50
2023-02-11T14:28:44.924Z,87.75
2023-02-11T14:30:30.636Z,91.75
2023-02-11T14:32:39.682Z,91.75
2023-02-11T14:34:33.298Z,98.75
2023-02-11T14:36:17.248Z,91.75
2023-02-11T14:37:52.975Z,91.50
2023-02-11T14:39:46.189Z,97.25
2023-02-11T14:41:32.558Z,97.25
2023-02-11T14:43:16.895Z,101.00
2023-02-11T14:44:49.453Z,101.00
2023-02-11T14:46:22.273Z,103.25
2023-02-11T14:48:08.007Z,97.00
2023-02-11T14:49:39.933Z,122.00
2023-02-11T14:51:16.089Z,121.00
2023-02-11T14:52:48.332Z,116.50
2023-02-11T14:54:24.733Z,116.00
2023-02-11T14:55:56.646Z,111.75
2023-02-11T14:57:29.893Z,113.00
2023-02-11T14:59:02.921Z,114.50
2023-02-11T15:00:34.916Z,113.50
2023-02-11T15:02:23.446Z,110.25
2023-02-11T15:03:56.812Z,112.50
2023-02-11T15:05:31.698Z,112.00
2023-02-11T15:07:07.270Z,108.50
2023-02-11T15:08:42.633Z,106.25
2023-02-11T15:10:31.141Z,111.25
2023-02-11T15:12:02.991Z,111.25
2023-02-11T15:13:34.962Z,107.25
2023-02-11T15:15:12.734Z,103.00
2023-02-11T15:16:45.056Z,106.75
2023-02-11T15:18:22.961Z,106.75
2023-02-11T15:19:57.467Z,100.75
2023-02-11T15:21:31.008Z,96.75
2023-02-11T15:23:04.333Z,95.00
2023-02-11T15:24:36.340Z,96.25
2023-02-11T15:26:14.958Z,99.25
2023-02-11T15:27:48.552Z,93.50
2023-02-11T15:29:20.708Z,95.25
2023-02-11T15:31:06.181Z,80.25
2023-02-11T15:32:41.285Z,90.50
2023-02-11T15:34:13.126Z,84.75
2023-02-11T15:35:44.972Z,84.50
2023-02-11T15:37:21.512Z,79.75
2023-02-11T15:39:18.815Z,76.75
2023-02-11T15:40:58.894Z,79.75
2023-02-11T15:42:38.079Z,73.50
2023-02-11T15:44:32.500Z,47.00
2023-02-11T15:46:04.513Z,74.50
2023-02-11T15:47:36.659Z,68.00
2023-02-11T15:49:16.340Z,76.25
2023-02-11T15:50:56.265Z,76.25
2023-02-11T15:52:28.393Z,76.50
2023-02-11T15:54:05.933Z,75.00
2023-02-11T15:55:37.755Z,75.00
2023-02-11T15:57:10.024Z,76.50
2023-02-11T15:58:43.791Z,76.25
2023-02-11T16:00:18.105Z,81.50
2023-02-11T16:01:50.101Z,81.75
2023-02-11T16:03:27.957Z,78.75
2023-02-11T16:05:02.247Z,78.50
2023-02-11T16:06:41.688Z,82.50
2023-02-11T16:08:35.606Z,79.00
2023-02-11T16:10:39.701Z,74.00
2023-02-11T16:12:24.557Z,90.25
2023-02-11T16:13:56.559Z,81.25
2023-02-11T16:15:38.448Z,78.00
2023-02-11T16:17:22.510Z,77.50
2023-02-11T16:19:05.739Z,83.75
2023-02-11T16:20:38.411Z,79.75
2023-02-11T16:22:11.629Z,89.00
2023-02-11T16:23:43.885Z,88.00
2023-02-11T16:25:19.796Z,92.75
2023-02-11T16:26:53.076Z,93.00
2023-02-11T16:28:25.094Z,92.25
2023-02-11T16:29:57.377Z,94.25
2023-02-11T16:31:34.251Z,90.50
2023-02-11T16:33:06.568Z,90.00
2023-02-11T16:34:38.549Z,88.75
2023-02-11T16:36:14.320Z,88.75
2023-02-11T16:37:46.246Z,92.00
2023-02-11T16:39:19.132Z,89.25
2023-02-11T16:40:51.637Z,89.25
2023-02-11T16:42:24.022Z,85.00
2023-02-11T16:43:58.023Z,91.25
2023-02-11T16:45:29.931Z,88.50
2023-02-11T16:47:03.411Z,86.50
2023-02-11T16:48:35.465Z,81.50
2023-02-11T16:50:09.927Z,76.25
2023-02-11T16:51:42.320Z,78.00
2023-02-11T16:53:17.203Z,80.00
2023-02-11T16:54:49.310Z,81.50
2023-02-11T16:56:21.293Z,78.25
2023-02-11T16:57:53.212Z,76.75
2023-02-11T16:59:25.615Z,81.75
2023-02-11T17:00:57.711Z,71.80
2023-02-11T17:02:30.871Z,70.00
2023-02-11T17:04:02.758Z,71.50
2023-02-11T17:05:49.346Z,66.40
2023-02-11T17:07:26.809Z,70.20
2023-02-11T17:08:58.887Z,63.40
2023-02-11T17:10:30.965Z,67.60
2023-02-11T17:12:02.891Z,58.40
2023-02-11T17:13:34.809Z,55.25
2023-02-11T17:15:07.693Z,54.75
2023-02-11T17:16:39.657Z,52.25
2023-02-11T17:18:15.050Z,55.75
2023-02-11T17:19:48.116Z,49.00
2023-02-11T17:21:20.049Z,54.00
2023-02-11T17:22:52.170Z,52.75
2023-02-11T17:24:24.561Z,50.25
2023-02-11T17:25:57.211Z,48.25
2023-02-11T17:27:29.529Z,49.75
2023-02-11T17:29:01.465Z,52.25
2023-02-11T17:30:33.831Z,48.25
2023-02-11T17:32:05.905Z,52.25
2023-02-11T17:33:38.105Z,48.75
2023-02-11T17:35:10.093Z,56.25
2023-02-11T17:36:42.044Z,57.50
2023-02-11T17:38:13.885Z,60.50
2023-02-11T17:39:45.764Z,61.40
2023-02-11T17:41:17.667Z,65.40
2023-02-11T17:42:50.243Z,64.00
2023-02-11T17:44:22.157Z,63.00
2023-02-11T17:45:54.345Z,66.00
2023-02-11T17:47:26.435Z,65.80
2023-02-11T17:48:58.980Z,65.80
2023-02-11T17:50:30.882Z,72.75
2023-02-11T17:52:03.077Z,64.25
2023-02-11T17:53:34.994Z,72.25
2023-02-11T17:55:07.287Z,69.25
2023-02-11T17:56:39.270Z,78.75
2023-02-11T17:58:11.458Z,74.75
2023-02-11T17:59:43.419Z,71.25
2023-02-11T18:01:15.319Z,75.75
2023-02-11T18:02:47.274Z,73.50
2023-02-11T18:04:19.879Z,67.00
2023-02-11T18:05:52.322Z,74.00
2023-02-11T18:07:26.124Z,73.50
2023-02-11T18:08:59.915Z,78.50
2023-02-11T18:10:33.853Z,68.75
2023-02-11T18:12:06.265Z,72.75
2023-02-11T18:13:38.352Z,68.75
2023-02-11T18:15:10.650Z,71.00
2023-02-11T18:16:45.057Z,70.20
2023-02-11T18:18:17.025Z,67.20
2023-02-11T18:19:49.472Z,66.60
2023-02-11T18:21:22.209Z,72.75
2023-02-11T18:22:54.289Z,77.00
2023-02-11T18:24:26.160Z,85.50
2023-02-11T18:25:58.079Z,74.00
2023-02-11T18:27:30.024Z,80.00
2023-02-11T18:29:01.989Z,85.75
2023-02-11T18:30:34.446Z,88.75
2023-02-11T18:32:06.745Z,89.50
2023-02-11T18:33:41.759Z,86.75
2023-02-11T18:35:15.233Z,83.25
2023-02-11T18:36:48.246Z,85.25
2023-02-11T18:38:20.726Z,87.50
2023-02-11T18:39:52.783Z,90.25
2023-02-11T18:41:24.893Z,109.25
2023-02-11T18:42:56.816Z,120.50
2023-02-11T18:44:28.909Z,124.33
2023-02-11T18:46:01.483Z,132.00
2023-02-11T18:47:33.562Z,122.33
2023-02-11T18:49:05.430Z,101.00
2023-02-11T18:50:37.756Z,95.25
2023-02-11T18:52:09.709Z,90.25
2023-02-11T18:53:41.868Z,79.25
2023-02-11T18:55:13.890Z,85.00
2023-02-11T18:56:45.912Z,86.50
2023-02-11T18:58:18.268Z,83.50
2023-02-11T18:59:50.875Z,89.25
2023-02-11T19:01:27.562Z,94.25
2023-02-11T19:02:59.619Z,100.00
2023-02-11T19:04:31.844Z,98.00
2023-02-11T19:06:03.863Z,94.00
2023-02-11T19:07:35.729Z,98.50
2023-02-11T19:09:10.104Z,102.00
2023-02-11T19:10:46.063Z,97.25
2023-02-11T19:12:18.012Z,95.25
2023-02-11T19:13:51.427Z,100.50
2023-02-11T19:15:23.691Z,106.00
2023-02-11T19:16:57.098Z,105.00
2023-02-11T19:18:29.105Z,113.25
2023-02-11T19:20:01.130Z,107.25
2023-02-11T19:21:33.630Z,112.50
2023-02-11T19:23:05.773Z,112.25
2023-02-11T19:24:38.142Z,108.75
2023-02-11T19:26:10.014Z,114.75
2023-02-11T19:27:42.024Z,107.25
2023-02-11T19:29:13.924Z,111.75
2023-02-11T19:30:46.017Z,113.50
2023-02-11T19:32:17.946Z,120.67
2023-02-11T19:33:49.882Z,128.67
2023-02-11T19:35:21.729Z,125.67
2023-02-11T19:36:54.507Z,128.33
2023-02-11T19:38:26.353Z,136.67
2023-02-11T19:39:58.263Z,129.00
2023-02-11T19:41:30.494Z,130.00
2023-02-11T19:43:02.402Z,130.67
2023-02-11T19:44:34.354Z,140.33
2023-02-11T19:46:06.585Z,137.00
2023-02-11T19:47:38.670Z,139.00
2023-02-11T19:49:12.312Z,140.33
2023-02-11T19:50:44.330Z,147.00
2023-02-11T19:52:16.260Z,157.50
2023-02-11T19:53:48.752Z,177.25
2023-02-11T19:55:20.673Z,170.00
2023-02-11T19:56:53.209Z,157.00
2023-02-11T19:58:25.135Z,154.33
2023-02-11T19:59:57.111Z,145.33
2023-02-11T20:01:29.136Z,156.67
2023-02-11T20:03:01.186Z,164.50
2023-02-11T20:04:33.458Z,160.33
2023-02-11T20:06:06.825Z,163.50
2023-02-11T20:07:38.805Z,158.00
2023-02-11T20:09:12.769Z,160.00
2023-02-11T20:10:44.642Z,159.50
2023-02-11T20:12:16.575Z,160.25
2023-02-11T20:13:49.588Z,181.00
2023-02-11T20:15:21.628Z,176.75
2023-02-11T20:16:53.588Z,164.25
2023-02-11T20:18:25.851Z,163.67
2023-02-11T20:19:58.256Z,149.33
2023-02-11T20:21:31.390Z,158.67
2023-02-11T20:23:03.370Z,144.33
2023-02-11T20:24:35.452Z,149.33
2023-02-11T20:26:08.693Z,156.33
2023-02-11T20:27:42.028Z,156.00
2023-02-11T20:29:15.624Z,144.33
2023-02-11T20:30:58.352Z,153.33
2023-02-11T20:32:32.779Z,157.00
2023-02-11T20:34:04.754Z,148.67
2023-02-11T20:35:36.962Z,154.33
2023-02-11T20:37:08.813Z,149.67
2023-02-11T20:38:40.814Z,153.67
2023-02-11T20:40:13.282Z,160.00
2023-02-11T20:41:46.352Z,171.75
2023-02-11T20:43:18.478Z,146.25
2023-02-11T20:44:50.534Z,145.33
2023-02-11T20:46:23.914Z,135.00
2023-02-11T20:47:55.844Z,135.67
2023-02-11T20:49:28.505Z,133.00
2023-02-11T20:51:11.203Z,128.00
2023-02-11T20:52:43.109Z,133.67
2023-02-11T20:54:17.449Z,139.00
2023-02-11T20:55:49.611Z,141.00
2023-02-11T20:57:21.678Z,143.00
2023-02-11T20:58:53.539Z,142.33
2023-02-11T21:00:25.525Z,140.67
2023-02-11T21:01:57.625Z,137.00
2023-02-11T21:03:29.618Z,140.33
2023-02-11T21:05:01.556Z,151.75
2023-02-11T21:06:35.530Z,148.33
2023-02-11T21:08:07.501Z,131.67
2023-02-11T21:09:40.232Z,133.67
2023-02-11T21:11:12.424Z,131.00
2023-02-11T21:12:44.332Z,127.67
2023-02-11T21:14:16.151Z,121.25
2023-02-11T21:15:48.031Z,124.67
2023-02-11T21:17:20.164Z,129.33
2023-02-11T21:18:52.498Z,121.00
2023-02-11T21:20:24.325Z,125.67
2023-02-11T21:21:57.425Z,130.00
2023-02-11T21:23:29.549Z,131.33
2023-02-11T21:25:01.457Z,128.33
2023-02-11T21:26:33.697Z,129.67
2023-02-11T21:28:05.801Z,133.33
2023-02-11T21:29:52.707Z,259.80
2023-02-11T21:31:27.335Z,188.00
2023-02-11T21:32:59.623Z,174.50
2023-02-11T21:34:31.521Z,146.50
2023-02-11T21:36:04.206Z,156.67
2023-02-11T21:37:36.123Z,138.33
2023-02-11T21:39:09.074Z,133.33
2023-02-11T21:40:41.062Z,137.33
2023-02-11T21:42:12.965Z,130.00
2023-02-11T21:43:45.133Z,127.67
2023-02-11T21:45:17.532Z,133.33
2023-02-11T21:46:49.413Z,135.00
2023-02-11T21:48:21.386Z,130.00
2023-02-11T21:49:53.461Z,127.00
2023-02-11T21:51:25.861Z,122.00
2023-02-11T21:52:57.681Z,127.50
2023-02-11T21:54:32.165Z,123.25
2023-02-11T21:56:08.906Z,113.75
2023-02-11T21:57:40.797Z,121.00
2023-02-11T21:59:14.200Z,124.00
2023-02-11T22:00:46.140Z,114.00
2023-02-11T22:02:18.037Z,110.75
2023-02-11T22:03:50.029Z,114.25
2023-02-11T22:05:22.009Z,108.50
2023-02-11T22:06:53.979Z,111.25
2023-02-11T22:08:25.842Z,111.25
2023-02-11T22:09:59.436Z,111.00
2023-02-11T22:11:31.365Z,109.75
2023-02-11T22:13:03.303Z,109.75
2023-02-11T22:14:36.035Z,107.00
2023-02-11T22:16:10.000Z,103.25
2023-02-11T22:17:41.933Z,101.25
2023-02-11T22:19:14.278Z,99.00
2023-02-11T22:20:46.161Z,100.75
2023-02-11T22:22:19.828Z,98.75
2023-02-11T22:23:51.833Z,97.50
2023-02-11T22:25:23.862Z,101.00
2023-02-11T22:26:55.725Z,91.50
2023-02-11T22:28:27.765Z,89.75
2023-02-11T22:29:59.746Z,83.25
2023-02-11T22:31:33.071Z,89.75
2023-02-11T22:33:05.789Z,84.75
2023-02-11T22:34:37.720Z,87.25
2023-02-11T22:36:14.475Z,84.00
2023-02-11T22:37:46.349Z,81.00
2023-02-11T22:39:18.328Z,82.75
2023-02-11T22:40:50.249Z,83.00
2023-02-11T22:42:22.314Z,79.75
2023-02-11T22:43:54.271Z,77.50
2023-02-11T22:45:26.091Z,88.75
2023-02-11T22:46:58.084Z,77.75
2023-02-11T22:48:29.921Z,75.00
2023-02-11T22:50:02.081Z,79.50
2023-02-11T22:51:33.972Z,63.20
2023-02-11T22:53:05.908Z,63.40
2023-02-11T22:54:37.750Z,71.60
2023-02-11T22:56:15.008Z,72.00
2023-02-11T22:57:47.300Z,70.60
2023-02-11T22:59:19.450Z,69.60
2023-02-11T23:00:51.278Z,69.80
2023-02-11T23:02:23.313Z,69.80
2023-02-11T23:03:55.279Z,73.40
2023-02-11T23:05:27.513Z,67.20
2023-02-11T23:06:59.466Z,67.20
2023-02-11T23:08:31.664Z,65.20
2023-02-11T23:10:03.912Z,71.20
2023-02-11T23:11:36.075Z,67.40
2023-02-11T23:13:08.081Z,70.80
2023-02-11T23:14:40.025Z,70.20
2023-02-11T23:16:15.645Z,71.50
2023-02-11T23:17:47.513Z,74.00
2023-02-11T23:19:20.108Z,72.40
2023-02-11T23:20:52.084Z,71.00
2023-02-11T23:22:23.951Z,74.00
2023-02-11T23:24:00.438Z,76.00
2023-02-11T23:25:32.594Z,74.75
2023-02-11T23:27:04.611Z,73.75
2023-02-11T23:28:36.518Z,72.75
2023-02-11T23:30:09.130Z,74.25
2023-02-11T23:31:43.613Z,76.50
2023-02-11T23:33:15.618Z,72.00
2023-02-11T23:34:47.608Z,76.00
